ROMMA est une association bénévole à but non lucratif. Votre soutien est indispensable : ADHERER à ROMMA ou FAIRE un DON

Briord - (01, Ain)

Bugey (281 m)   Longitude: 05° 29' 13" E   Latitude: 45° 46' 37" N Station partenaire n°15
 

Détail journalier du     <<     >>

Température Precipitation Humidité Pression Vent Dir Rafale Dir. rafale Ensol.
Heure (°C) (mm) (%) (hPa) (km/h) (km/h) (min)
01:00 5.8095101700---0
02:00 5.9095101800---0
03:00 5.9095101800---0
04:00 5.9095101800---0
05:00 5.8095101800---0
06:00 5.8095101900---0
07:00 5.8095101900---0
08:00 5.8095102000---0
09:00 5.609410201ONO13O0
10:00 6.109310211ONO11ONO0
11:00 6.709210218ONO23NO25
12:00 6.5092102114ONO29O40
13:00 5.3092102115ONO27ONO15
14:00 4.8092102115NO31NO0
15:00 4.4092102115NO31NNO0
16:00 4.1092102213NO29ONO0
17:00 4.2092102210NO21NO0
18:00 3.809210239ONO21O0
19:00 3.609210238ONO19ONO0
20:00 3.109110235NO16NO0
21:00 2.409210231---11ONO0
22:00 0.8092102306O0
23:00 1.1094102400---0
minuit 1.2093102400---0

Graphique du 02-12-2019

 

Serveur OMMA